No particular awareness of the weather is required.    There are no Weather-warnings


Meteo18 Weather Cam more information Meteo18 Weather Cam


Thunder radar more information blitzortung!


Rain radar more information rain snow radar


Visit our other weather sites:

Template documentation
and downloads

And another site



Weather Underground History page Text

Daily Summary for March 8, 2017 Units:  Both    English   Metric
« Previous Day
Next Day »
Daily Weekly Monthly Yearly Custom
  High: Low: Average:
Temperature: TemperatureC °F /  -17.8 °C 3.1 °F /  -16.1 °C 8.2 °F /  -13.2 °C
Dew Point: DewpointC °F /  -17.8 °C 2.3 °F /  -16.5 °C 7.4 °F /  -13.7 °C
Humidity: Humidity % 90 % 94 %
Wind Speed: WindSpeedKMH mph /  0 km/h - 8.8 mph /  14.2 km/h
Wind Gust: WindSpeedGustKMH mph /  0 km/h - -
Wind:- - SW
Pressure: PressurehPa in /  0 hPa 1021.9 in /  34601.5 hPa -
Precipitation: 1.5 in /  38.1 mm    
Historical Graphs
 
 
Tabular Data for March 8, 2017
Time Temperature Dew Point Pressure Wind Wind Speed Wind Gust Humidity Rainfall Rate (Hourly)
TemperatureC °F /  -17.8 °C DewpointC °F /  -17.8 °C PressurehPa in /  0 hPa Calm     Humidity % HourlyPrecipMM in /  0 mm
00:02 3.3 °F /  -15.9 °C 2.4 °F /  -16.4 °C 1023.6 in /  34659.1 hPa Calm   1.6 mph /  2.6 km/h 94 % 0.0 in /  0 mm
00:07 3.2 °F /  -16 °C 2.3 °F /  -16.5 °C 1023.2 in /  34645.6 hPa Calm     94 % 0.0 in /  0 mm
00:12 3.2 °F /  -16 °C 2.3 °F /  -16.5 °C 1023.2 in /  34645.6 hPa Calm     94 % 0.0 in /  0 mm
00:17 3.2 °F /  -16 °C 2.3 °F /  -16.5 °C 1023.6 in /  34659.1 hPa Calm     94 % 0.0 in /  0 mm
00:27 3.4 °F /  -15.9 °C 2.7 °F /  -16.3 °C 1023.6 in /  34659.1 hPa Calm     95 % 0.0 in /  0 mm
00:32 3.3 °F /  -15.9 °C 2.4 °F /  -16.4 °C 1023.9 in /  34669.3 hPa Calm     94 % 0.0 in /  0 mm
00:37 3.3 °F /  -15.9 °C 2.6 °F /  -16.3 °C 1023.6 in /  34659.1 hPa Calm     95 % 0.0 in /  0 mm
00:42 3.2 °F /  -16 °C 2.5 °F /  -16.4 °C 1023.9 in /  34669.3 hPa Calm     95 % 0.0 in /  0 mm
00:47 3.3 °F /  -15.9 °C 2.6 °F /  -16.3 °C 1023.9 in /  34669.3 hPa Calm     95 % 0.0 in /  0 mm
00:52 3.3 °F /  -15.9 °C 2.6 °F /  -16.3 °C 1024.3 in /  34682.8 hPa Calm     95 % 0.0 in /  0 mm
00:57 3.3 °F /  -15.9 °C 2.6 °F /  -16.3 °C 1023.9 in /  34669.3 hPa Calm     95 % 0.0 in /  0 mm
01:02 3.4 °F /  -15.9 °C 2.7 °F /  -16.3 °C 1023.9 in /  34669.3 hPa Calm     95 % 0.0 in /  0 mm
01:07 3.3 °F /  -15.9 °C 2.6 °F /  -16.3 °C 1023.9 in /  34669.3 hPa Calm     95 % 0.0 in /  0 mm
01:12 3.3 °F /  -15.9 °C 2.6 °F /  -16.3 °C 1023.6 in /  34659.1 hPa Calm     95 % 0.0 in /  0 mm
01:17 3.3 °F /  -15.9 °C 2.6 °F /  -16.3 °C 1023.9 in /  34669.3 hPa Calm     95 % 0.0 in /  0 mm
01:22 3.4 °F /  -15.9 °C 2.8 °F /  -16.2 °C 1023.9 in /  34669.3 hPa Calm     96 % 0.0 in /  0 mm
01:27 3.5 °F /  -15.8 °C 2.8 °F /  -16.2 °C 1023.9 in /  34669.3 hPa Calm     95 % 0.0 in /  0 mm
01:32 3.4 °F /  -15.9 °C 2.7 °F /  -16.3 °C 1024.3 in /  34682.8 hPa Calm     95 % 0.0 in /  0 mm
01:37 3.4 °F /  -15.9 °C 2.7 °F /  -16.3 °C 1024.3 in /  34682.8 hPa Calm     95 % 0.0 in /  0 mm
01:42 3.3 °F /  -15.9 °C 2.6 °F /  -16.3 °C 1024.3 in /  34682.8 hPa Calm     95 % 0.0 in /  0 mm
01:47 3.3 °F /  -15.9 °C 2.6 °F /  -16.3 °C 1024.3 in /  34682.8 hPa Calm     95 % 0.0 in /  0 mm
01:52 3.3 °F /  -15.9 °C 2.6 °F /  -16.3 °C 1024.3 in /  34682.8 hPa Calm     95 % 0.0 in /  0 mm
01:57 3.3 °F /  -15.9 °C 2.6 °F /  -16.3 °C 1023.9 in /  34669.3 hPa Calm     95 % 0.0 in /  0 mm
02:02 3.3 °F /  -15.9 °C 2.6 °F /  -16.3 °C 1023.9 in /  34669.3 hPa Calm     95 % 0.0 in /  0 mm
02:07 3.2 °F /  -16 °C 2.5 °F /  -16.4 °C 1024.3 in /  34682.8 hPa Calm     95 % 0.0 in /  0 mm
02:12 3.2 °F /  -16 °C 2.5 °F /  -16.4 °C 1023.9 in /  34669.3 hPa Calm     95 % 0.0 in /  0 mm
02:17 3.2 °F /  -16 °C 2.5 °F /  -16.4 °C 1023.9 in /  34669.3 hPa Calm     95 % 0.0 in /  0 mm
02:22 3.2 °F /  -16 °C 2.6 °F /  -16.3 °C 1023.9 in /  34669.3 hPa Calm     96 % 0.0 in /  0 mm
02:27 3.2 °F /  -16 °C 2.6 °F /  -16.3 °C 1023.6 in /  34659.1 hPa Calm     96 % 0.0 in /  0 mm
02:32 3.2 °F /  -16 °C 2.6 °F /  -16.3 °C 1023.6 in /  34659.1 hPa Calm     96 % 0.0 in /  0 mm
02:37 3.2 °F /  -16 °C 2.6 °F /  -16.3 °C 1023.6 in /  34659.1 hPa Calm     96 % 0.0 in /  0 mm
02:42 3.2 °F /  -16 °C 2.5 °F /  -16.4 °C 1023.6 in /  34659.1 hPa Calm     95 % 0.0 in /  0 mm
02:52 3.2 °F /  -16 °C 2.6 °F /  -16.3 °C 1023.2 in /  34645.6 hPa Calm     96 % 0.0 in /  0 mm
02:57 3.2 °F /  -16 °C 2.6 °F /  -16.3 °C 1023.2 in /  34645.6 hPa Calm     96 % 0.0 in /  0 mm
03:02 3.1 °F /  -16.1 °C 2.5 °F /  -16.4 °C 1023.6 in /  34659.1 hPa Calm     96 % 0.0 in /  0 mm
03:07 3.1 °F /  -16.1 °C 2.5 °F /  -16.4 °C 1023.2 in /  34645.6 hPa Calm     96 % 0.0 in /  0 mm
03:12 3.1 °F /  -16.1 °C 2.5 °F /  -16.4 °C 1022.9 in /  34635.4 hPa Calm   3.2 mph /  5.1 km/h 96 % 0.0 in /  0 mm
03:17 3.1 °F /  -16.1 °C 2.5 °F /  -16.4 °C 1022.9 in /  34635.4 hPa Calm   3.2 mph /  5.1 km/h 96 % 0.0 in /  0 mm
03:22 3.1 °F /  -16.1 °C 2.5 °F /  -16.4 °C 1022.9 in /  34635.4 hPa Calm   1.6 mph /  2.6 km/h 96 % 0.0 in /  0 mm
03:27 3.1 °F /  -16.1 °C 2.5 °F /  -16.4 °C 1023.2 in /  34645.6 hPa Calm     96 % 0.0 in /  0 mm
03:32 3.1 °F /  -16.1 °C 2.5 °F /  -16.4 °C 1023.2 in /  34645.6 hPa Calm     96 % 0.0 in /  0 mm
03:37 3.1 °F /  -16.1 °C 2.5 °F /  -16.4 °C 1023.2 in /  34645.6 hPa Calm     96 % 0.0 in /  0 mm
03:42 3.2 °F /  -16 °C 2.6 °F /  -16.3 °C 1023.2 in /  34645.6 hPa Calm   3.2 mph /  5.1 km/h 96 % 0.0 in /  0 mm
03:47 3.3 °F /  -15.9 °C 2.7 °F /  -16.3 °C 1022.9 in /  34635.4 hPa SSE 1.6 mph /  2.6 km/h 3.2 mph /  5.1 km/h 96 % 0.0 in /  0 mm
03:52 3.4 °F /  -15.9 °C 2.8 °F /  -16.2 °C 1022.9 in /  34635.4 hPa Calm   4.8 mph /  7.7 km/h 96 % 0.0 in /  0 mm
03:57 3.4 °F /  -15.9 °C 2.8 °F /  -16.2 °C 1022.6 in /  34625.2 hPa SSE 1.6 mph /  2.6 km/h 4.8 mph /  7.7 km/h 96 % 0.0 in /  0 mm
04:02 3.5 °F /  -15.8 °C 2.9 °F /  -16.2 °C 1022.9 in /  34635.4 hPa Calm   4.8 mph /  7.7 km/h 96 % 0.0 in /  0 mm
04:07 3.5 °F /  -15.8 °C 2.9 °F /  -16.2 °C 1022.9 in /  34635.4 hPa SSW 1.6 mph /  2.6 km/h 4.8 mph /  7.7 km/h 96 % 0.0 in /  0 mm
04:12 3.6 °F /  -15.8 °C 3.0 °F /  -16.1 °C 1022.9 in /  34635.4 hPa SSW 3.2 mph /  5.1 km/h 4.8 mph /  7.7 km/h 96 % 0.0 in /  0 mm
04:17 3.6 °F /  -15.8 °C 3.0 °F /  -16.1 °C 1022.9 in /  34635.4 hPa South 3.2 mph /  5.1 km/h 4.8 mph /  7.7 km/h 96 % 0.0 in /  0 mm
04:22 3.6 °F /  -15.8 °C 2.9 °F /  -16.2 °C 1022.6 in /  34625.2 hPa SSW 4.8 mph /  7.7 km/h 6.4 mph /  10.3 km/h 95 % 0.0 in /  0 mm
04:27 3.7 °F /  -15.7 °C 3.0 °F /  -16.1 °C 1022.6 in /  34625.2 hPa South 3.2 mph /  5.1 km/h 6.4 mph /  10.3 km/h 95 % 0.0 in /  0 mm
04:32 3.7 °F /  -15.7 °C 3.0 °F /  -16.1 °C 1022.6 in /  34625.2 hPa SSE 3.2 mph /  5.1 km/h 6.4 mph /  10.3 km/h 95 % 0.0 in /  0 mm
04:37 3.7 °F /  -15.7 °C 3.0 °F /  -16.1 °C 1022.6 in /  34625.2 hPa Calm   6.4 mph /  10.3 km/h 95 % 0.0 in /  0 mm
04:42 3.7 °F /  -15.7 °C 3.0 °F /  -16.1 °C 1022.2 in /  34611.7 hPa South 3.2 mph /  5.1 km/h 6.4 mph /  10.3 km/h 95 % 0.0 in /  0 mm
04:47 3.8 °F /  -15.7 °C 3.1 °F /  -16.1 °C 1022.2 in /  34611.7 hPa South 4.8 mph /  7.7 km/h 6.4 mph /  10.3 km/h 95 % 0.0 in /  0 mm
04:52 3.8 °F /  -15.7 °C 3.1 °F /  -16.1 °C 1022.2 in /  34611.7 hPa South 1.6 mph /  2.6 km/h 8.0 mph /  12.9 km/h 95 % 0.0 in /  0 mm
04:57 3.8 °F /  -15.7 °C 3.1 °F /  -16.1 °C 1022.2 in /  34611.7 hPa SSE 1.6 mph /  2.6 km/h 8.0 mph /  12.9 km/h 95 % 0.0 in /  0 mm
05:02 3.8 °F /  -15.7 °C 3.1 °F /  -16.1 °C 1022.2 in /  34611.7 hPa SSE 1.6 mph /  2.6 km/h 8.0 mph /  12.9 km/h 95 % 0.0 in /  0 mm
05:07 3.9 °F /  -15.6 °C 3.2 °F /  -16 °C 1022.2 in /  34611.7 hPa South 1.6 mph /  2.6 km/h 3.2 mph /  5.1 km/h 95 % 0.0 in /  0 mm
05:12 3.9 °F /  -15.6 °C 3.2 °F /  -16 °C 1022.2 in /  34611.7 hPa Calm   4.8 mph /  7.7 km/h 95 % 0.0 in /  0 mm
05:17 3.9 °F /  -15.6 °C 3.2 °F /  -16 °C 1022.2 in /  34611.7 hPa South 1.6 mph /  2.6 km/h 4.8 mph /  7.7 km/h 95 % 0.0 in /  0 mm
05:22 3.9 °F /  -15.6 °C 3.2 °F /  -16 °C 1022.2 in /  34611.7 hPa SSE 1.6 mph /  2.6 km/h 3.2 mph /  5.1 km/h 95 % 0.0 in /  0 mm
05:27 4.0 °F /  -15.6 °C 3.3 °F /  -15.9 °C 1022.2 in /  34611.7 hPa Calm   3.2 mph /  5.1 km/h 95 % 0.0 in /  0 mm
05:32 4.0 °F /  -15.6 °C 3.3 °F /  -15.9 °C 1022.2 in /  34611.7 hPa Calm   3.2 mph /  5.1 km/h 95 % 0.0 in /  0 mm
05:37 4.1 °F /  -15.5 °C 3.4 °F /  -15.9 °C 1022.2 in /  34611.7 hPa Calm   3.2 mph /  5.1 km/h 95 % 0.0 in /  0 mm
05:42 4.1 °F /  -15.5 °C 3.4 °F /  -15.9 °C 1022.2 in /  34611.7 hPa Calm     95 % 0.0 in /  0 mm
05:52 4.2 °F /  -15.4 °C 3.3 °F /  -15.9 °C 1022.2 in /  34611.7 hPa South 3.2 mph /  5.1 km/h 3.2 mph /  5.1 km/h 94 % 0.0 in /  0 mm
05:57 4.2 °F /  -15.4 °C 3.3 °F /  -15.9 °C 1022.2 in /  34611.7 hPa Calm   3.2 mph /  5.1 km/h 94 % 0.0 in /  0 mm
06:02 4.3 °F /  -15.4 °C 3.4 °F /  -15.9 °C 1022.2 in /  34611.7 hPa SE 1.6 mph /  2.6 km/h 3.2 mph /  5.1 km/h 94 % 0.0 in /  0 mm
06:07 4.3 °F /  -15.4 °C 3.4 °F /  -15.9 °C 1022.2 in /  34611.7 hPa SSE 1.6 mph /  2.6 km/h 4.8 mph /  7.7 km/h 94 % 0.0 in /  0 mm
06:12 4.3 °F /  -15.4 °C 3.4 °F /  -15.9 °C 1022.2 in /  34611.7 hPa SE 3.2 mph /  5.1 km/h 4.8 mph /  7.7 km/h 94 % 0.0 in /  0 mm
06:17 4.3 °F /  -15.4 °C 3.4 °F /  -15.9 °C 1022.2 in /  34611.7 hPa SSE 1.6 mph /  2.6 km/h 4.8 mph /  7.7 km/h 94 % 0.0 in /  0 mm
06:27 4.3 °F /  -15.4 °C 3.4 °F /  -15.9 °C 1022.2 in /  34611.7 hPa South 1.6 mph /  2.6 km/h 6.4 mph /  10.3 km/h 94 % 0.3 in /  7.62 mm
06:32 4.3 °F /  -15.4 °C 3.4 °F /  -15.9 °C 1022.2 in /  34611.7 hPa SSW 1.6 mph /  2.6 km/h 6.4 mph /  10.3 km/h 94 % 0.3 in /  7.62 mm
06:42 4.4 °F /  -15.3 °C 3.7 °F /  -15.7 °C 1022.2 in /  34611.7 hPa Calm   4.8 mph /  7.7 km/h 95 % 0.5 in /  12.7 mm
06:47 4.4 °F /  -15.3 °C 3.7 °F /  -15.7 °C 1022.2 in /  34611.7 hPa South 1.6 mph /  2.6 km/h 4.8 mph /  7.7 km/h 95 % 0.5 in /  12.7 mm
06:52 4.4 °F /  -15.3 °C 3.7 °F /  -15.7 °C 1022.2 in /  34611.7 hPa SSW 1.6 mph /  2.6 km/h 8.0 mph /  12.9 km/h 95 % 0.8 in /  20.32 mm
07:02 4.4 °F /  -15.3 °C 3.7 °F /  -15.7 °C 1022.2 in /  34611.7 hPa South 3.2 mph /  5.1 km/h 8.0 mph /  12.9 km/h 95 % 0.8 in /  20.32 mm
07:12 4.4 °F /  -15.3 °C 3.7 °F /  -15.7 °C 1021.9 in /  34601.5 hPa South 3.2 mph /  5.1 km/h 6.4 mph /  10.3 km/h 95 % 0.8 in /  20.32 mm
07:17 4.4 °F /  -15.3 °C 3.8 °F /  -15.7 °C 1022.2 in /  34611.7 hPa SSE 3.2 mph /  5.1 km/h 6.4 mph /  10.3 km/h 96 % 0.5 in /  12.7 mm
07:22 4.4 °F /  -15.3 °C 3.8 °F /  -15.7 °C 1022.2 in /  34611.7 hPa SSE 8.0 mph /  12.9 km/h 8.0 mph /  12.9 km/h 96 % 0.5 in /  12.7 mm
07:27 4.5 °F /  -15.3 °C 3.9 °F /  -15.6 °C 1022.2 in /  34611.7 hPa South 1.6 mph /  2.6 km/h 9.7 mph /  15.6 km/h 96 % 0.8 in /  20.32 mm
07:32 4.6 °F /  -15.2 °C 4.0 °F /  -15.6 °C 1022.2 in /  34611.7 hPa South 3.2 mph /  5.1 km/h 9.7 mph /  15.6 km/h 96 % 0.8 in /  20.32 mm
07:37 4.6 °F /  -15.2 °C 4.0 °F /  -15.6 °C 1021.9 in /  34601.5 hPa SSE 3.2 mph /  5.1 km/h 9.7 mph /  15.6 km/h 96 % 0.5 in /  12.7 mm
07:42 4.6 °F /  -15.2 °C 4.0 °F /  -15.6 °C 1022.2 in /  34611.7 hPa SSE 1.6 mph /  2.6 km/h 9.7 mph /  15.6 km/h 96 % 0.5 in /  12.7 mm
07:47 4.7 °F /  -15.2 °C 4.1 °F /  -15.5 °C 1022.2 in /  34611.7 hPa SSE 1.6 mph /  2.6 km/h 6.4 mph /  10.3 km/h 96 % 0.3 in /  7.62 mm
07:52 4.8 °F /  -15.1 °C 4.2 °F /  -15.4 °C 1021.9 in /  34601.5 hPa SE 3.2 mph /  5.1 km/h 6.4 mph /  10.3 km/h 96 % 0.3 in /  7.62 mm
07:57 4.8 °F /  -15.1 °C 4.2 °F /  -15.4 °C 1021.9 in /  34601.5 hPa South 6.4 mph /  10.3 km/h 6.4 mph /  10.3 km/h 96 % 0.5 in /  12.7 mm
08:02 5.1 °F /  -14.9 °C 4.7 °F /  -15.2 °C 1022.2 in /  34611.7 hPa SSE 3.2 mph /  5.1 km/h 6.4 mph /  10.3 km/h 97 % 0.5 in /  12.7 mm
08:07 5.2 °F /  -14.9 °C 4.8 °F /  -15.1 °C 1022.2 in /  34611.7 hPa South 3.2 mph /  5.1 km/h 11.3 mph /  18.2 km/h 97 % 0.5 in /  12.7 mm
08:12 5.3 °F /  -14.8 °C 4.9 °F /  -15.1 °C 1022.2 in /  34611.7 hPa SSE 4.8 mph /  7.7 km/h 11.3 mph /  18.2 km/h 97 % 0.5 in /  12.7 mm
08:17 5.3 °F /  -14.8 °C 4.9 °F /  -15.1 °C 1022.2 in /  34611.7 hPa SSW 4.8 mph /  7.7 km/h 9.7 mph /  15.6 km/h 97 % 0.5 in /  12.7 mm
08:22 5.4 °F /  -14.8 °C 5.0 °F /  -15 °C 1021.9 in /  34601.5 hPa SSE 4.8 mph /  7.7 km/h 9.7 mph /  15.6 km/h 97 % 0.5 in /  12.7 mm
08:27 5.5 °F /  -14.7 °C 5.1 °F /  -14.9 °C 1021.9 in /  34601.5 hPa South 4.8 mph /  7.7 km/h 9.7 mph /  15.6 km/h 97 % 0.3 in /  7.62 mm
08:32 5.6 °F /  -14.7 °C 5.2 °F /  -14.9 °C 1022.2 in /  34611.7 hPa SSW 4.8 mph /  7.7 km/h 9.7 mph /  15.6 km/h 97 % 0.3 in /  7.62 mm
08:37 5.7 °F /  -14.6 °C 5.3 °F /  -14.8 °C 1022.2 in /  34611.7 hPa SSW 8.0 mph /  12.9 km/h 9.7 mph /  15.6 km/h 97 % 0.3 in /  7.62 mm
08:42 5.8 °F /  -14.6 °C 5.4 °F /  -14.8 °C 1022.2 in /  34611.7 hPa South 4.8 mph /  7.7 km/h 9.7 mph /  15.6 km/h 97 % 0.3 in /  7.62 mm
08:47 5.9 °F /  -14.5 °C 5.5 °F /  -14.7 °C 1022.2 in /  34611.7 hPa SSW 4.8 mph /  7.7 km/h 9.7 mph /  15.6 km/h 97 % 0.3 in /  7.62 mm
08:57 6.1 °F /  -14.4 °C 5.7 °F /  -14.6 °C 1022.6 in /  34625.2 hPa Calm   8.0 mph /  12.9 km/h 97 % 0.0 in /  0 mm
09:02 6.1 °F /  -14.4 °C 5.7 °F /  -14.6 °C 1022.6 in /  34625.2 hPa Calm   8.0 mph /  12.9 km/h 97 % 0.0 in /  0 mm
09:07 6.2 °F /  -14.3 °C 5.8 °F /  -14.6 °C 1022.6 in /  34625.2 hPa SSW 3.2 mph /  5.1 km/h 3.2 mph /  5.1 km/h 97 % 0.0 in /  0 mm
09:12 6.4 °F /  -14.2 °C 6.0 °F /  -14.4 °C 1022.6 in /  34625.2 hPa SW 8.0 mph /  12.9 km/h 8.0 mph /  12.9 km/h 97 % 0.0 in /  0 mm
09:17 6.6 °F /  -14.1 °C 6.2 °F /  -14.3 °C 1022.6 in /  34625.2 hPa SSW 6.4 mph /  10.3 km/h 12.9 mph /  20.8 km/h 97 % 0.0 in /  0 mm
09:22 6.6 °F /  -14.1 °C 6.2 °F /  -14.3 °C 1022.6 in /  34625.2 hPa SSW 6.4 mph /  10.3 km/h 12.9 mph /  20.8 km/h 97 % 0.0 in /  0 mm
09:27 6.7 °F /  -14.1 °C 6.3 °F /  -14.3 °C 1022.6 in /  34625.2 hPa SSW 6.4 mph /  10.3 km/h 12.9 mph /  20.8 km/h 97 % 0.3 in /  7.62 mm
09:32 6.8 °F /  -14 °C 6.4 °F /  -14.2 °C 1022.2 in /  34611.7 hPa SSW 8.0 mph /  12.9 km/h 12.9 mph /  20.8 km/h 97 % 0.3 in /  7.62 mm
09:37 6.9 °F /  -13.9 °C 6.5 °F /  -14.2 °C 1022.2 in /  34611.7 hPa SSW 11.3 mph /  18.2 km/h 16.1 mph /  25.9 km/h 97 % 0.3 in /  7.62 mm
09:42 7.1 °F /  -13.8 °C 6.7 °F /  -14.1 °C 1022.2 in /  34611.7 hPa SW 9.7 mph /  15.6 km/h 16.1 mph /  25.9 km/h 97 % 0.3 in /  7.62 mm
09:47 7.2 °F /  -13.8 °C 6.8 °F /  -14 °C 1022.6 in /  34625.2 hPa SW 6.4 mph /  10.3 km/h 14.5 mph /  23.3 km/h 97 % 0.3 in /  7.62 mm
09:52 7.3 °F /  -13.7 °C 6.9 °F /  -13.9 °C 1022.6 in /  34625.2 hPa SSW 12.9 mph /  20.8 km/h 14.5 mph /  23.3 km/h 97 % 0.3 in /  7.62 mm
09:57 7.4 °F /  -13.7 °C 7.0 °F /  -13.9 °C 1022.6 in /  34625.2 hPa SSW 4.8 mph /  7.7 km/h 17.7 mph /  28.5 km/h 97 % 0.3 in /  7.62 mm
10:02 7.5 °F /  -13.6 °C 7.1 °F /  -13.8 °C 1022.6 in /  34625.2 hPa SW 6.4 mph /  10.3 km/h 17.7 mph /  28.5 km/h 97 % 0.3 in /  7.62 mm
10:07 7.6 °F /  -13.6 °C 7.2 °F /  -13.8 °C 1022.6 in /  34625.2 hPa SW 9.7 mph /  15.6 km/h 17.7 mph /  28.5 km/h 97 % 0.3 in /  7.62 mm
10:12 7.6 °F /  -13.6 °C 7.2 °F /  -13.8 °C 1022.6 in /  34625.2 hPa SSW 6.4 mph /  10.3 km/h 14.5 mph /  23.3 km/h 97 % 0.3 in /  7.62 mm
10:17 7.8 °F /  -13.4 °C 7.4 °F /  -13.7 °C 1022.2 in /  34611.7 hPa SW 6.4 mph /  10.3 km/h 14.5 mph /  23.3 km/h 97 % 0.3 in /  7.62 mm
10:22 7.9 °F /  -13.4 °C 7.5 °F /  -13.6 °C 1022.2 in /  34611.7 hPa SW 8.0 mph /  12.9 km/h 16.1 mph /  25.9 km/h 97 % 0.3 in /  7.62 mm
10:27 8.1 °F /  -13.3 °C 7.7 °F /  -13.5 °C 1022.2 in /  34611.7 hPa South 9.7 mph /  15.6 km/h 17.7 mph /  28.5 km/h 97 % 0.0 in /  0 mm
10:32 8.2 °F /  -13.2 °C 7.8 °F /  -13.4 °C 1022.2 in /  34611.7 hPa SW 9.7 mph /  15.6 km/h 17.7 mph /  28.5 km/h 97 % 0.0 in /  0 mm
10:37 8.3 °F /  -13.2 °C 7.9 °F /  -13.4 °C 1022.6 in /  34625.2 hPa SW 11.3 mph /  18.2 km/h 17.7 mph /  28.5 km/h 97 % 0.0 in /  0 mm
10:42 8.3 °F /  -13.2 °C 7.9 °F /  -13.4 °C 1022.6 in /  34625.2 hPa SW 11.3 mph /  18.2 km/h 16.1 mph /  25.9 km/h 97 % 0.0 in /  0 mm
10:47 8.4 °F /  -13.1 °C 8.0 °F /  -13.3 °C 1022.6 in /  34625.2 hPa SW 8.0 mph /  12.9 km/h 16.1 mph /  25.9 km/h 97 % 0.0 in /  0 mm
10:52 8.6 °F /  -13 °C 8.2 °F /  -13.2 °C 1022.6 in /  34625.2 hPa SSW 8.0 mph /  12.9 km/h 12.9 mph /  20.8 km/h 97 % 0.0 in /  0 mm
10:57 8.7 °F /  -12.9 °C 8.4 °F /  -13.1 °C 1022.6 in /  34625.2 hPa SSW 6.4 mph /  10.3 km/h 12.9 mph /  20.8 km/h 98 % 0.0 in /  0 mm
11:02 8.8 °F /  -12.9 °C 8.5 °F /  -13.1 °C 1022.6 in /  34625.2 hPa SW 6.4 mph /  10.3 km/h 12.9 mph /  20.8 km/h 98 % 0.0 in /  0 mm
11:07 8.9 °F /  -12.8 °C 8.6 °F /  -13 °C 1022.6 in /  34625.2 hPa SW 4.8 mph /  7.7 km/h 12.9 mph /  20.8 km/h 98 % 0.0 in /  0 mm
11:12 9.1 °F /  -12.7 °C 8.8 °F /  -12.9 °C 1022.2 in /  34611.7 hPa SSW 6.4 mph /  10.3 km/h 12.9 mph /  20.8 km/h 98 % 0.0 in /  0 mm
11:17 9.2 °F /  -12.7 °C 8.9 °F /  -12.8 °C 1022.6 in /  34625.2 hPa SW 3.2 mph /  5.1 km/h 12.9 mph /  20.8 km/h 98 % 0.0 in /  0 mm
11:22 9.3 °F /  -12.6 °C 9.0 °F /  -12.8 °C 1022.6 in /  34625.2 hPa SW 3.2 mph /  5.1 km/h 12.9 mph /  20.8 km/h 98 % 0.0 in /  0 mm
11:27 9.4 °F /  -12.6 °C 9.1 °F /  -12.7 °C 1022.9 in /  34635.4 hPa WSW 9.7 mph /  15.6 km/h 12.9 mph /  20.8 km/h 98 % 0.0 in /  0 mm
11:32 9.6 °F /  -12.4 °C 9.3 °F /  -12.6 °C 1022.9 in /  34635.4 hPa WSW 12.9 mph /  20.8 km/h 16.1 mph /  25.9 km/h 98 % 0.0 in /  0 mm
11:37 9.8 °F /  -12.3 °C 9.5 °F /  -12.5 °C 1022.9 in /  34635.4 hPa WNW 8.0 mph /  12.9 km/h 16.1 mph /  25.9 km/h 98 % 0.0 in /  0 mm
11:42 10.1 °F /  -12.2 °C 9.8 °F /  -12.3 °C 1022.9 in /  34635.4 hPa SW 3.2 mph /  5.1 km/h 17.7 mph /  28.5 km/h 98 % 0.0 in /  0 mm
11:47 10.2 °F /  -12.1 °C 9.9 °F /  -12.3 °C 1022.9 in /  34635.4 hPa West 16.1 mph /  25.9 km/h 20.9 mph /  33.6 km/h 98 % 0.0 in /  0 mm
11:52 10.4 °F /  -12 °C 9.9 °F /  -12.3 °C 1022.9 in /  34635.4 hPa WSW 12.9 mph /  20.8 km/h 30.6 mph /  49.2 km/h 97 % 0.0 in /  0 mm
12:02 10.9 °F /  -11.7 °C 10.0 °F /  -12.2 °C 1023.2 in /  34645.6 hPa West 16.1 mph /  25.9 km/h 25.7 mph /  41.4 km/h 94 % 0.0 in /  0 mm
12:07 11.1 °F /  -11.6 °C 9.8 °F /  -12.3 °C 1023.2 in /  34645.6 hPa WNW 12.9 mph /  20.8 km/h 25.7 mph /  41.4 km/h 92 % 0.0 in /  0 mm
12:12 11.3 °F /  -11.5 °C 10.0 °F /  -12.2 °C 1023.2 in /  34645.6 hPa West 9.7 mph /  15.6 km/h 20.9 mph /  33.6 km/h 92 % 0.0 in /  0 mm
12:17 11.3 °F /  -11.5 °C 9.9 °F /  -12.3 °C 1023.2 in /  34645.6 hPa WSW 8.0 mph /  12.9 km/h 25.7 mph /  41.4 km/h 91 % 0.0 in /  0 mm
12:22 11.4 °F /  -11.4 °C 10.0 °F /  -12.2 °C 1023.2 in /  34645.6 hPa SW 12.9 mph /  20.8 km/h 25.7 mph /  41.4 km/h 91 % 0.0 in /  0 mm
12:27 11.3 °F /  -11.5 °C 9.9 °F /  -12.3 °C 1023.2 in /  34645.6 hPa WSW 12.9 mph /  20.8 km/h 25.7 mph /  41.4 km/h 91 % 0.0 in /  0 mm
12:32 11.2 °F /  -11.6 °C 9.9 °F /  -12.3 °C 1023.2 in /  34645.6 hPa West 11.3 mph /  18.2 km/h 25.7 mph /  41.4 km/h 92 % 0.0 in /  0 mm
12:37 11.1 °F /  -11.6 °C 10.0 °F /  -12.2 °C 1023.2 in /  34645.6 hPa West 12.9 mph /  20.8 km/h 27.4 mph /  44.1 km/h 93 % 0.0 in /  0 mm
12:42 10.9 °F /  -11.7 °C 9.8 °F /  -12.3 °C 1023.2 in /  34645.6 hPa WSW 16.1 mph /  25.9 km/h 27.4 mph /  44.1 km/h 93 % 0.0 in /  0 mm
12:47 10.9 °F /  -11.7 °C 10.0 °F /  -12.2 °C 1023.2 in /  34645.6 hPa SW 8.0 mph /  12.9 km/h 27.4 mph /  44.1 km/h 94 % 0.0 in /  0 mm
12:52 10.8 °F /  -11.8 °C 9.9 °F /  -12.3 °C 1023.6 in /  34659.1 hPa WSW 16.1 mph /  25.9 km/h 27.4 mph /  44.1 km/h 94 % 0.0 in /  0 mm
12:57 10.8 °F /  -11.8 °C 9.9 °F /  -12.3 °C 1023.6 in /  34659.1 hPa WSW 9.7 mph /  15.6 km/h 27.4 mph /  44.1 km/h 94 % 0.0 in /  0 mm
13:02 10.8 °F /  -11.8 °C 9.9 °F /  -12.3 °C 1023.6 in /  34659.1 hPa West 14.5 mph /  23.3 km/h 25.7 mph /  41.4 km/h 94 % 0.0 in /  0 mm
13:07 10.8 °F /  -11.8 °C 9.9 °F /  -12.3 °C 1023.6 in /  34659.1 hPa West 9.7 mph /  15.6 km/h 25.7 mph /  41.4 km/h 94 % 0.0 in /  0 mm
13:12 10.8 °F /  -11.8 °C 9.9 °F /  -12.3 °C 1023.6 in /  34659.1 hPa WSW 6.4 mph /  10.3 km/h 22.5 mph /  36.2 km/h 94 % 0.0 in /  0 mm
13:17 10.8 °F /  -11.8 °C 10.0 °F /  -12.2 °C 1023.6 in /  34659.1 hPa WSW 17.7 mph /  28.5 km/h 22.5 mph /  36.2 km/h 95 % 0.0 in /  0 mm
13:22 10.9 °F /  -11.7 °C 10.1 °F /  -12.2 °C 1023.6 in /  34659.1 hPa West 16.1 mph /  25.9 km/h 20.9 mph /  33.6 km/h 95 % 0.3 in /  7.62 mm
13:27 10.9 °F /  -11.7 °C 10.1 °F /  -12.2 °C 1023.2 in /  34645.6 hPa SW 6.4 mph /  10.3 km/h 20.9 mph /  33.6 km/h 95 % 0.3 in /  7.62 mm
13:32 10.9 °F /  -11.7 °C 10.1 °F /  -12.2 °C 1023.2 in /  34645.6 hPa WSW 14.5 mph /  23.3 km/h 20.9 mph /  33.6 km/h 95 % 0.3 in /  7.62 mm
13:37 11.1 °F /  -11.6 °C 10.3 °F /  -12.1 °C 1023.2 in /  34645.6 hPa West 12.9 mph /  20.8 km/h 20.9 mph /  33.6 km/h 95 % 0.3 in /  7.62 mm
13:42 11.1 °F /  -11.6 °C 10.3 °F /  -12.1 °C 1023.2 in /  34645.6 hPa WSW 6.4 mph /  10.3 km/h 19.3 mph /  31.1 km/h 95 % 0.3 in /  7.62 mm
13:47 11.2 °F /  -11.6 °C 10.4 °F /  -12 °C 1023.2 in /  34645.6 hPa WSW 12.9 mph /  20.8 km/h 22.5 mph /  36.2 km/h 95 % 0.3 in /  7.62 mm
13:52 11.3 °F /  -11.5 °C 10.4 °F /  -12 °C 1023.2 in /  34645.6 hPa WSW 14.5 mph /  23.3 km/h 22.5 mph /  36.2 km/h 94 % 0.3 in /  7.62 mm
13:57 11.3 °F /  -11.5 °C 10.4 °F /  -12 °C 1023.2 in /  34645.6 hPa West 6.4 mph /  10.3 km/h 24.1 mph /  38.8 km/h 94 % 0.3 in /  7.62 mm
14:02 11.3 °F /  -11.5 °C 10.4 °F /  -12 °C 1022.9 in /  34635.4 hPa WSW 8.0 mph /  12.9 km/h 24.1 mph /  38.8 km/h 94 % 0.3 in /  7.62 mm
14:07 11.3 °F /  -11.5 °C 10.4 °F /  -12 °C 1022.9 in /  34635.4 hPa WSW 16.1 mph /  25.9 km/h 24.1 mph /  38.8 km/h 94 % 0.3 in /  7.62 mm
14:12 11.3 °F /  -11.5 °C 10.4 °F /  -12 °C 1022.9 in /  34635.4 hPa WSW 12.9 mph /  20.8 km/h 20.9 mph /  33.6 km/h 94 % 0.3 in /  7.62 mm
14:17 11.3 °F /  -11.5 °C 10.4 °F /  -12 °C 1022.9 in /  34635.4 hPa SSW 6.4 mph /  10.3 km/h 24.1 mph /  38.8 km/h 94 % 0.3 in /  7.62 mm
14:22 11.3 °F /  -11.5 °C 10.4 °F /  -12 °C 1022.9 in /  34635.4 hPa West 12.9 mph /  20.8 km/h 24.1 mph /  38.8 km/h 94 % 0.0 in /  0 mm
14:27 11.3 °F /  -11.5 °C 10.4 °F /  -12 °C 1022.9 in /  34635.4 hPa SSW 11.3 mph /  18.2 km/h 24.1 mph /  38.8 km/h 94 % 0.0 in /  0 mm
14:32 11.4 °F /  -11.4 °C 10.5 °F /  -11.9 °C 1022.6 in /  34625.2 hPa SW 19.3 mph /  31.1 km/h 24.1 mph /  38.8 km/h 94 % 0.0 in /  0 mm
14:37 11.6 °F /  -11.3 °C 10.5 °F /  -11.9 °C 1022.9 in /  34635.4 hPa SW 8.0 mph /  12.9 km/h 22.5 mph /  36.2 km/h 93 % 0.0 in /  0 mm
14:42 11.7 °F /  -11.3 °C 10.6 °F /  -11.9 °C 1022.9 in /  34635.4 hPa SW 14.5 mph /  23.3 km/h 25.7 mph /  41.4 km/h 93 % 0.0 in /  0 mm
14:52 11.8 °F /  -11.2 °C 10.5 °F /  -11.9 °C 1022.9 in /  34635.4 hPa West 12.9 mph /  20.8 km/h 27.4 mph /  44.1 km/h 92 % 0.0 in /  0 mm
14:57 11.8 °F /  -11.2 °C 10.4 °F /  -12 °C 1022.9 in /  34635.4 hPa WSW 20.9 mph /  33.6 km/h 27.4 mph /  44.1 km/h 91 % 0.0 in /  0 mm
15:02 11.8 °F /  -11.2 °C 10.4 °F /  -12 °C 1022.9 in /  34635.4 hPa SW 12.9 mph /  20.8 km/h 29.0 mph /  46.7 km/h 91 % 0.0 in /  0 mm
15:07 11.8 °F /  -11.2 °C 10.4 °F /  -12 °C 1022.6 in /  34625.2 hPa SW 9.7 mph /  15.6 km/h 30.6 mph /  49.2 km/h 91 % 0.0 in /  0 mm
15:12 11.8 °F /  -11.2 °C 10.4 °F /  -12 °C 1022.9 in /  34635.4 hPa WSW 11.3 mph /  18.2 km/h 30.6 mph /  49.2 km/h 91 % 0.0 in /  0 mm
15:17 11.9 °F /  -11.2 °C 10.5 °F /  -11.9 °C 1022.9 in /  34635.4 hPa WSW 9.7 mph /  15.6 km/h 30.6 mph /  49.2 km/h 91 % 0.0 in /  0 mm
15:22 11.9 °F /  -11.2 °C 10.5 °F /  -11.9 °C 1022.9 in /  34635.4 hPa WSW 14.5 mph /  23.3 km/h 32.2 mph /  51.8 km/h 91 % 0.0 in /  0 mm
15:27 12.0 °F /  -11.1 °C 10.6 °F /  -11.9 °C 1022.6 in /  34625.2 hPa West 14.5 mph /  23.3 km/h 32.2 mph /  51.8 km/h 91 % 0.0 in /  0 mm
15:32 12.0 °F /  -11.1 °C 10.6 °F /  -11.9 °C 1022.9 in /  34635.4 hPa WSW 19.3 mph /  31.1 km/h 32.2 mph /  51.8 km/h 91 % 0.0 in /  0 mm
15:37 12.1 °F /  -11.1 °C 10.7 °F /  -11.8 °C 1022.9 in /  34635.4 hPa West 12.9 mph /  20.8 km/h 30.6 mph /  49.2 km/h 91 % 0.0 in /  0 mm
15:42 12.1 °F /  -11.1 °C 10.7 °F /  -11.8 °C 1022.9 in /  34635.4 hPa WSW 11.3 mph /  18.2 km/h 30.6 mph /  49.2 km/h 91 % 0.0 in /  0 mm
15:47 12.1 °F /  -11.1 °C 10.5 °F /  -11.9 °C 1022.9 in /  34635.4 hPa West 11.3 mph /  18.2 km/h 29.0 mph /  46.7 km/h 90 % 0.0 in /  0 mm
15:52 12.1 °F /  -11.1 °C 10.7 °F /  -11.8 °C 1022.9 in /  34635.4 hPa West 16.1 mph /  25.9 km/h 33.8 mph /  54.4 km/h 91 % 0.0 in /  0 mm
15:57 12.1 °F /  -11.1 °C 10.7 °F /  -11.8 °C 1022.9 in /  34635.4 hPa WSW 22.5 mph /  36.2 km/h 35.4 mph /  57 km/h 91 % 0.0 in /  0 mm
16:02 12.1 °F /  -11.1 °C 10.7 °F /  -11.8 °C 1022.9 in /  34635.4 hPa West 16.1 mph /  25.9 km/h 35.4 mph /  57 km/h 91 % 0.0 in /  0 mm
16:07 12.1 °F /  -11.1 °C 10.7 °F /  -11.8 °C 1023.2 in /  34645.6 hPa West 16.1 mph /  25.9 km/h 35.4 mph /  57 km/h 91 % 0.0 in /  0 mm
16:12 12.0 °F /  -11.1 °C 10.7 °F /  -11.8 °C 1022.9 in /  34635.4 hPa West 8.0 mph /  12.9 km/h 30.6 mph /  49.2 km/h 92 % 0.0 in /  0 mm
16:17 11.9 °F /  -11.2 °C 10.6 °F /  -11.9 °C 1022.6 in /  34625.2 hPa WSW 14.5 mph /  23.3 km/h 29.0 mph /  46.7 km/h 92 % 0.0 in /  0 mm
16:22 11.9 °F /  -11.2 °C 10.6 °F /  -11.9 °C 1022.6 in /  34625.2 hPa SW 19.3 mph /  31.1 km/h 29.0 mph /  46.7 km/h 92 % 0.0 in /  0 mm
16:27 11.9 °F /  -11.2 °C 10.6 °F /  -11.9 °C 1022.9 in /  34635.4 hPa WSW 12.9 mph /  20.8 km/h 29.0 mph /  46.7 km/h 92 % 0.0 in /  0 mm
16:32 11.9 °F /  -11.2 °C 10.6 °F /  -11.9 °C 1022.9 in /  34635.4 hPa WSW 12.9 mph /  20.8 km/h 29.0 mph /  46.7 km/h 92 % 0.0 in /  0 mm
16:37 11.9 °F /  -11.2 °C 10.8 °F /  -11.8 °C 1022.9 in /  34635.4 hPa WSW 22.5 mph /  36.2 km/h 35.4 mph /  57 km/h 93 % 0.0 in /  0 mm
16:42 11.9 °F /  -11.2 °C 10.8 °F /  -11.8 °C 1023.2 in /  34645.6 hPa WSW 19.3 mph /  31.1 km/h 35.4 mph /  57 km/h 93 % 0.0 in /  0 mm
16:47 11.9 °F /  -11.2 °C 10.6 °F /  -11.9 °C 1023.2 in /  34645.6 hPa West 22.5 mph /  36.2 km/h 35.4 mph /  57 km/h 92 % 0.0 in /  0 mm
16:52 11.9 °F /  -11.2 °C 10.8 °F /  -11.8 °C 1023.2 in /  34645.6 hPa WSW 6.4 mph /  10.3 km/h 33.8 mph /  54.4 km/h 93 % 0.0 in /  0 mm
16:57 11.9 °F /  -11.2 °C 10.8 °F /  -11.8 °C 1022.9 in /  34635.4 hPa WSW 17.7 mph /  28.5 km/h 33.8 mph /  54.4 km/h 93 % 0.0 in /  0 mm
17:02 11.8 °F /  -11.2 °C 10.7 °F /  -11.8 °C 1023.2 in /  34645.6 hPa SW 9.7 mph /  15.6 km/h 33.8 mph /  54.4 km/h 93 % 0.0 in /  0 mm
17:07 11.8 °F /  -11.2 °C 10.9 °F /  -11.7 °C 1023.2 in /  34645.6 hPa West 12.9 mph /  20.8 km/h 33.8 mph /  54.4 km/h 94 % 0.0 in /  0 mm
17:17 11.8 °F /  -11.2 °C 10.9 °F /  -11.7 °C 1023.2 in /  34645.6 hPa SW 9.7 mph /  15.6 km/h 30.6 mph /  49.2 km/h 94 % 0.0 in /  0 mm
17:22 11.8 °F /  -11.2 °C 10.9 °F /  -11.7 °C 1023.2 in /  34645.6 hPa SW 9.7 mph /  15.6 km/h 30.6 mph /  49.2 km/h 94 % 0.0 in /  0 mm
17:27 11.8 °F /  -11.2 °C 10.9 °F /  -11.7 °C 1023.6 in /  34659.1 hPa West 17.7 mph /  28.5 km/h 30.6 mph /  49.2 km/h 94 % 0.0 in /  0 mm
17:32 11.7 °F /  -11.3 °C 10.8 °F /  -11.8 °C 1023.6 in /  34659.1 hPa West 11.3 mph /  18.2 km/h 30.6 mph /  49.2 km/h 94 % 0.0 in /  0 mm
17:37 11.7 °F /  -11.3 °C 10.9 °F /  -11.7 °C 1023.6 in /  34659.1 hPa WSW 19.3 mph /  31.1 km/h 27.4 mph /  44.1 km/h 95 % 0.0 in /  0 mm
17:42 11.7 °F /  -11.3 °C 10.8 °F /  -11.8 °C 1023.6 in /  34659.1 hPa WSW 19.3 mph /  31.1 km/h 32.2 mph /  51.8 km/h 94 % 0.0 in /  0 mm
17:47 11.7 °F /  -11.3 °C 10.8 °F /  -11.8 °C 1023.6 in /  34659.1 hPa WSW 16.1 mph /  25.9 km/h 32.2 mph /  51.8 km/h 94 % 0.0 in /  0 mm
17:52 11.7 °F /  -11.3 °C 10.9 °F /  -11.7 °C 1023.6 in /  34659.1 hPa WSW 20.9 mph /  33.6 km/h 32.2 mph /  51.8 km/h 95 % 0.0 in /  0 mm
17:57 11.6 °F /  -11.3 °C 10.8 °F /  -11.8 °C 1023.6 in /  34659.1 hPa WNW 4.8 mph /  7.7 km/h 29.0 mph /  46.7 km/h 95 % 0.0 in /  0 mm
18:02 11.6 °F /  -11.3 °C 10.8 °F /  -11.8 °C 1023.6 in /  34659.1 hPa West 17.7 mph /  28.5 km/h 29.0 mph /  46.7 km/h 95 % 0.0 in /  0 mm
18:07 11.6 °F /  -11.3 °C 10.8 °F /  -11.8 °C 1023.6 in /  34659.1 hPa WSW 14.5 mph /  23.3 km/h 30.6 mph /  49.2 km/h 95 % 0.0 in /  0 mm
18:12 11.6 °F /  -11.3 °C 10.8 °F /  -11.8 °C 1023.6 in /  34659.1 hPa West 8.0 mph /  12.9 km/h 30.6 mph /  49.2 km/h 95 % 0.0 in /  0 mm
18:17 11.6 °F /  -11.3 °C 10.8 °F /  -11.8 °C 1023.6 in /  34659.1 hPa West 16.1 mph /  25.9 km/h 22.5 mph /  36.2 km/h 95 % 0.0 in /  0 mm
18:27 11.6 °F /  -11.3 °C 10.8 °F /  -11.8 °C 1023.9 in /  34669.3 hPa West 8.0 mph /  12.9 km/h 25.7 mph /  41.4 km/h 95 % 0.0 in /  0 mm
18:32 11.6 °F /  -11.3 °C 10.8 °F /  -11.8 °C 1023.9 in /  34669.3 hPa WSW 22.5 mph /  36.2 km/h 25.7 mph /  41.4 km/h 95 % 0.0 in /  0 mm
18:37 11.6 °F /  -11.3 °C 10.8 °F /  -11.8 °C 1023.9 in /  34669.3 hPa WSW 8.0 mph /  12.9 km/h 25.7 mph /  41.4 km/h 95 % 0.0 in /  0 mm
18:42 11.6 °F /  -11.3 °C 10.8 °F /  -11.8 °C 1023.9 in /  34669.3 hPa WSW 9.7 mph /  15.6 km/h 25.7 mph /  41.4 km/h 95 % 0.0 in /  0 mm
18:47 11.6 °F /  -11.3 °C 10.8 °F /  -11.8 °C 1023.6 in /  34659.1 hPa SW 12.9 mph /  20.8 km/h 33.8 mph /  54.4 km/h 95 % 0.0 in /  0 mm
18:52 11.6 °F /  -11.3 °C 10.8 °F /  -11.8 °C 1023.6 in /  34659.1 hPa WSW 14.5 mph /  23.3 km/h 33.8 mph /  54.4 km/h 95 % 0.0 in /  0 mm
18:57 11.6 °F /  -11.3 °C 10.8 °F /  -11.8 °C 1023.9 in /  34669.3 hPa WSW 12.9 mph /  20.8 km/h 33.8 mph /  54.4 km/h 95 % 0.0 in /  0 mm
19:02 11.6 °F /  -11.3 °C 10.8 °F /  -11.8 °C 1023.6 in /  34659.1 hPa WSW 19.3 mph /  31.1 km/h 29.0 mph /  46.7 km/h 95 % 0.0 in /  0 mm
19:07 11.6 °F /  -11.3 °C 10.8 °F /  -11.8 °C 1023.9 in /  34669.3 hPa West 19.3 mph /  31.1 km/h 27.4 mph /  44.1 km/h 95 % 0.0 in /  0 mm
19:12 11.7 °F /  -11.3 °C 10.8 °F /  -11.8 °C 1023.9 in /  34669.3 hPa WNW 9.7 mph /  15.6 km/h 30.6 mph /  49.2 km/h 94 % 0.0 in /  0 mm
19:17 11.7 °F /  -11.3 °C 10.8 °F /  -11.8 °C 1023.9 in /  34669.3 hPa WSW 11.3 mph /  18.2 km/h 30.6 mph /  49.2 km/h 94 % 0.0 in /  0 mm
19:22 11.7 °F /  -11.3 °C 10.8 °F /  -11.8 °C 1023.9 in /  34669.3 hPa West 25.7 mph /  41.4 km/h 27.4 mph /  44.1 km/h 94 % 0.0 in /  0 mm
19:27 11.7 °F /  -11.3 °C 10.8 °F /  -11.8 °C 1024.3 in /  34682.8 hPa West 17.7 mph /  28.5 km/h 29.0 mph /  46.7 km/h 94 % 0.0 in /  0 mm
19:32 11.7 °F /  -11.3 °C 10.8 °F /  -11.8 °C 1024.3 in /  34682.8 hPa WSW 17.7 mph /  28.5 km/h 29.0 mph /  46.7 km/h 94 % 0.0 in /  0 mm
19:37 11.7 °F /  -11.3 °C 10.6 °F /  -11.9 °C 1024.3 in /  34682.8 hPa West 14.5 mph /  23.3 km/h 29.0 mph /  46.7 km/h 93 % 0.0 in /  0 mm
19:42 11.8 °F /  -11.2 °C 10.7 °F /  -11.8 °C 1024.3 in /  34682.8 hPa WSW 12.9 mph /  20.8 km/h 35.4 mph /  57 km/h 93 % 0.0 in /  0 mm
19:47 11.7 °F /  -11.3 °C 10.6 °F /  -11.9 °C 1024.3 in /  34682.8 hPa West 9.7 mph /  15.6 km/h 35.4 mph /  57 km/h 93 % 0.0 in /  0 mm
19:52 11.7 °F /  -11.3 °C 10.6 °F /  -11.9 °C 1024.3 in /  34682.8 hPa West 16.1 mph /  25.9 km/h 35.4 mph /  57 km/h 93 % 0.0 in /  0 mm
19:57 11.8 °F /  -11.2 °C 10.7 °F /  -11.8 °C 1024.3 in /  34682.8 hPa West 16.1 mph /  25.9 km/h 29.0 mph /  46.7 km/h 93 % 0.0 in /  0 mm
20:02 11.8 °F /  -11.2 °C 10.7 °F /  -11.8 °C 1024.3 in /  34682.8 hPa West 17.7 mph /  28.5 km/h 38.6 mph /  62.1 km/h 93 % 0.0 in /  0 mm
20:07 11.8 °F /  -11.2 °C 10.7 °F /  -11.8 °C 1024.3 in /  34682.8 hPa West 8.0 mph /  12.9 km/h 38.6 mph /  62.1 km/h 93 % 0.0 in /  0 mm
20:12 11.8 °F /  -11.2 °C 10.5 °F /  -11.9 °C 1024.3 in /  34682.8 hPa WSW 19.3 mph /  31.1 km/h 30.6 mph /  49.2 km/h 92 % 0.0 in /  0 mm
20:17 11.8 °F /  -11.2 °C 10.5 °F /  -11.9 °C 1024.3 in /  34682.8 hPa WSW 17.7 mph /  28.5 km/h 35.4 mph /  57 km/h 92 % 0.0 in /  0 mm
20:22 11.8 °F /  -11.2 °C 10.5 °F /  -11.9 °C 1024.3 in /  34682.8 hPa WSW 25.7 mph /  41.4 km/h 35.4 mph /  57 km/h 92 % 0.0 in /  0 mm
20:27 11.8 °F /  -11.2 °C 10.5 °F /  -11.9 °C 1024.3 in /  34682.8 hPa WSW 14.5 mph /  23.3 km/h 35.4 mph /  57 km/h 92 % 0.0 in /  0 mm
20:37 11.6 °F /  -11.3 °C 10.7 °F /  -11.8 °C 1024.6 in /  34693 hPa West 9.7 mph /  15.6 km/h 29.0 mph /  46.7 km/h 94 % 0.0 in /  0 mm
20:42 11.4 °F /  -11.4 °C 10.5 °F /  -11.9 °C 1024.6 in /  34693 hPa WSW 24.1 mph /  38.8 km/h 27.4 mph /  44.1 km/h 94 % 0.0 in /  0 mm
20:47 11.4 °F /  -11.4 °C 10.5 °F /  -11.9 °C 1024.6 in /  34693 hPa WSW 20.9 mph /  33.6 km/h 29.0 mph /  46.7 km/h 94 % 0.0 in /  0 mm
20:57 11.4 °F /  -11.4 °C 10.5 °F /  -11.9 °C 1024.6 in /  34693 hPa SW 16.1 mph /  25.9 km/h 32.2 mph /  51.8 km/h 94 % 0.0 in /  0 mm
21:02 11.3 °F /  -11.5 °C 10.4 °F /  -12 °C 1024.9 in /  34703.1 hPa West 11.3 mph /  18.2 km/h 32.2 mph /  51.8 km/h 94 % 0.0 in /  0 mm
21:07 11.3 °F /  -11.5 °C 10.4 °F /  -12 °C 1024.9 in /  34703.1 hPa SW 17.7 mph /  28.5 km/h 32.2 mph /  51.8 km/h 94 % 0.0 in /  0 mm
21:17 11.3 °F /  -11.5 °C 10.2 °F /  -12.1 °C 1024.9 in /  34703.1 hPa WSW 27.4 mph /  44.1 km/h 33.8 mph /  54.4 km/h 93 % 0.0 in /  0 mm
21:22 11.3 °F /  -11.5 °C 10.2 °F /  -12.1 °C 1024.9 in /  34703.1 hPa SW 16.1 mph /  25.9 km/h 33.8 mph /  54.4 km/h 93 % 0.0 in /  0 mm
21:27 11.2 °F /  -11.6 °C 10.3 °F /  -12.1 °C 1024.9 in /  34703.1 hPa WSW 14.5 mph /  23.3 km/h 33.8 mph /  54.4 km/h 94 % 0.0 in /  0 mm
21:37 11.2 °F /  -11.6 °C 10.3 °F /  -12.1 °C 1024.6 in /  34693 hPa WSW 16.1 mph /  25.9 km/h 25.7 mph /  41.4 km/h 94 % 0.0 in /  0 mm
21:42 11.1 °F /  -11.6 °C 10.2 °F /  -12.1 °C 1024.6 in /  34693 hPa SSW 12.9 mph /  20.8 km/h 24.1 mph /  38.8 km/h 94 % 0.0 in /  0 mm
21:47 11.2 °F /  -11.6 °C 10.3 °F /  -12.1 °C 1024.6 in /  34693 hPa SW 8.0 mph /  12.9 km/h 24.1 mph /  38.8 km/h 94 % 0.0 in /  0 mm
21:52 11.1 °F /  -11.6 °C 10.2 °F /  -12.1 °C 1024.6 in /  34693 hPa West 4.8 mph /  7.7 km/h 22.5 mph /  36.2 km/h 94 % 0.0 in /  0 mm
21:57 11.2 °F /  -11.6 °C 10.3 °F /  -12.1 °C 1024.9 in /  34703.1 hPa SSW 14.5 mph /  23.3 km/h 22.5 mph /  36.2 km/h 94 % 0.0 in /  0 mm
22:02 11.2 °F /  -11.6 °C 10.3 °F /  -12.1 °C 1024.9 in /  34703.1 hPa WSW 12.9 mph /  20.8 km/h 24.1 mph /  38.8 km/h 94 % 0.0 in /  0 mm
22:07 11.1 °F /  -11.6 °C 10.2 °F /  -12.1 °C 1024.9 in /  34703.1 hPa West 14.5 mph /  23.3 km/h 24.1 mph /  38.8 km/h 94 % 0.0 in /  0 mm
22:12 11.1 °F /  -11.6 °C 10.2 °F /  -12.1 °C 1024.9 in /  34703.1 hPa WSW 19.3 mph /  31.1 km/h 27.4 mph /  44.1 km/h 94 % 0.0 in /  0 mm
22:17 11.1 °F /  -11.6 °C 10.2 °F /  -12.1 °C 1024.9 in /  34703.1 hPa SW 16.1 mph /  25.9 km/h 27.4 mph /  44.1 km/h 94 % 0.0 in /  0 mm
22:22 11.0 °F /  -11.7 °C 10.1 °F /  -12.2 °C 1024.9 in /  34703.1 hPa West 19.3 mph /  31.1 km/h 27.4 mph /  44.1 km/h 94 % 0.0 in /  0 mm
22:27 11.0 °F /  -11.7 °C 10.1 °F /  -12.2 °C 1024.9 in /  34703.1 hPa West 17.7 mph /  28.5 km/h 27.4 mph /  44.1 km/h 94 % 0.0 in /  0 mm
22:32 10.9 °F /  -11.7 °C 10.0 °F /  -12.2 °C 1024.9 in /  34703.1 hPa WSW 20.9 mph /  33.6 km/h 25.7 mph /  41.4 km/h 94 % 0.0 in /  0 mm
22:37 11.0 °F /  -11.7 °C 10.1 °F /  -12.2 °C 1024.9 in /  34703.1 hPa SW 20.9 mph /  33.6 km/h 25.7 mph /  41.4 km/h 94 % 0.0 in /  0 mm
22:42 11.0 °F /  -11.7 °C 10.1 °F /  -12.2 °C 1024.9 in /  34703.1 hPa SW 19.3 mph /  31.1 km/h 32.2 mph /  51.8 km/h 94 % 0.0 in /  0 mm
22:47 10.9 °F /  -11.7 °C 10.0 °F /  -12.2 °C 1024.9 in /  34703.1 hPa WSW 12.9 mph /  20.8 km/h 32.2 mph /  51.8 km/h 94 % 0.0 in /  0 mm
22:52 10.9 °F /  -11.7 °C 10.0 °F /  -12.2 °C 1024.6 in /  34693 hPa WSW 11.3 mph /  18.2 km/h 32.2 mph /  51.8 km/h 94 % 0.0 in /  0 mm
22:57 10.9 °F /  -11.7 °C 10.0 °F /  -12.2 °C 1024.6 in /  34693 hPa SSW 12.9 mph /  20.8 km/h 29.0 mph /  46.7 km/h 94 % 0.0 in /  0 mm
23:02 10.9 °F /  -11.7 °C 10.0 °F /  -12.2 °C 1024.9 in /  34703.1 hPa WSW 17.7 mph /  28.5 km/h 32.2 mph /  51.8 km/h 94 % 0.0 in /  0 mm
23:07 10.8 °F /  -11.8 °C 9.9 °F /  -12.3 °C 1024.9 in /  34703.1 hPa SW 17.7 mph /  28.5 km/h 32.2 mph /  51.8 km/h 94 % 0.0 in /  0 mm
23:12 10.9 °F /  -11.7 °C 10.0 °F /  -12.2 °C 1024.9 in /  34703.1 hPa West 17.7 mph /  28.5 km/h 32.2 mph /  51.8 km/h 94 % 0.0 in /  0 mm
23:17 10.9 °F /  -11.7 °C 10.0 °F /  -12.2 °C 1024.9 in /  34703.1 hPa West 17.7 mph /  28.5 km/h 32.2 mph /  51.8 km/h 94 % 0.0 in /  0 mm
23:22 10.8 °F /  -11.8 °C 9.9 °F /  -12.3 °C 1024.9 in /  34703.1 hPa WSW 17.7 mph /  28.5 km/h 27.4 mph /  44.1 km/h 94 % 0.0 in /  0 mm
23:27 10.8 °F /  -11.8 °C 9.9 °F /  -12.3 °C 1024.9 in /  34703.1 hPa WSW 20.9 mph /  33.6 km/h 27.4 mph /  44.1 km/h 94 % 0.0 in /  0 mm
23:32 10.8 °F /  -11.8 °C 9.9 °F /  -12.3 °C 1024.9 in /  34703.1 hPa WSW 19.3 mph /  31.1 km/h 27.4 mph /  44.1 km/h 94 % 0.0 in /  0 mm
23:37 10.8 °F /  -11.8 °C 9.9 °F /  -12.3 °C 1024.9 in /  34703.1 hPa West 14.5 mph /  23.3 km/h 25.7 mph /  41.4 km/h 94 % 0.0 in /  0 mm
23:42 10.8 °F /  -11.8 °C 9.9 °F /  -12.3 °C 1024.9 in /  34703.1 hPa WSW 14.5 mph /  23.3 km/h 30.6 mph /  49.2 km/h 94 % 0.0 in /  0 mm
23:47 10.7 °F /  -11.8 °C 9.8 °F /  -12.3 °C 1024.6 in /  34693 hPa WSW 11.3 mph /  18.2 km/h 30.6 mph /  49.2 km/h 94 % 0.0 in /  0 mm
23:52 10.7 °F /  -11.8 °C 9.8 °F /  -12.3 °C 1024.6 in /  34693 hPa WSW 6.4 mph /  10.3 km/h 29.0 mph /  46.7 km/h 94 % 0.0 in /  0 mm
23:57 10.7 °F /  -11.8 °C 9.8 °F /  -12.3 °C 1024.6 in /  34693 hPa SW 16.1 mph /  25.9 km/h 29.0 mph /  46.7 km/h 94 % 0.0 in /  0 mm
Meteo18
Compliments of Weather Underground - 4 mb

Script developed by  Jim McMurry - jmcmurry@mwt.net Adapted for the template by  Wim van der Kuil - Leuven-Template.eu

You find our weather info also at:

European Weather Network

Weather Underground

Equipment we use:

Weather-station
Davis Vue

Weather-program
Meteobridge

Weather-server
Raspberry PI 2 B+

Provider
1 and 1

Davis Vue

Meteobridge

Raspberry PI 2 B+

1 and 1